Airfield :
LOGIN :

Register | Disclaimer

   EN    FR    IT 

 










Legend :    VFR   Marginal VFR   IFR   Intensive IFR   Very Intensive IFR
Visi :
Ceiling :
>= 8 km
>= 3000ft
5 to 8 km
1000 to 3000 ft
1500m to 5 km
500 to 1000 ft
800 to 1500m
200 to 500 ft
< 800m
< 200 ft
Symbols :   Thunderstorms  Fog  Heavy snow  Heavy precipitations  Wind > 20 kt
SIGMETs :     Misc.  Thunderstorms  Icing  Turbulence  Mountain Waves  Volcanic Ashes







- Airport Elevation : 160 ft
- IATA code : LRT
- Download approach charts


LFRH - Lorient Lann Bihoue

CURRENT METAR :
  • 160630Z AUTO 23010KT 9999 BKN009 OVC052 15/14 Q1020 TEMPO 4000 RA

EXPIRED METARs :
  • 160600Z AUTO 23010KT 9999 OVC009 15/13 Q1019 TEMPO 4000 RA
  • 160530Z AUTO 23010KT 9999 BKN010 BKN014 BKN034 15/14 Q1019 TEMPO 4000 RA
  • 160500Z AUTO 24009KT 9999 FEW011 BKN028 BKN033 14/13 Q1019 TEMPO 2500 RA BKN005 OVC008
  • 160430Z AUTO 23010KT 9999 FEW012 OVC025 14/13 Q1019 TEMPO 2500 RA BKN005 OVC008
  • 160400Z AUTO 23009KT 9999 FEW011 OVC025 14/13 Q1019 TEMPO 2500 RA BKN005 OVC008

TAF TAF LFRH
Valid from the 16 at 06:00 until the 17 at 06:00 UTC


160500Z 1606/1706 24010KT 9999 BKN012 OVC020
TEMPO 1606/1610 4000 RA BKN008 OVC010
BECMG 1610/1612 SCT020
BECMG 1618/1620 BKN015
BECMG 1700/1702 VRB03KT
TEMPO 1702/1704 3000 BR NSC
No reported NOTAMs for that airfield.



MET'MAP, your aeronautical weather chart ! - Copyright ORBIFLY December 2007 - Disclaimer

ORBIFLY MET'MAP TEAM :

Programming & Development : Alexandra Zaïnal
Concept & Development : Baudouin d'Aumeries
Co-Development & Prog : Marc-Olivier Méhu
Technical & hardware support : Manuel Goepfert

Contact : metmap@orbifly.com




SOURCES & CREDITS :

   NOAA